HOURLY OBS INDEX

017

Northeast Pastoral

LEIGH CREEK AIRPORT

Site: 017110
Alt: 258.8m
111km SSE of MARREE


  Time     Wind        Temp  DP   Baro     Rain since   Rain past  Vis(m), Cloud(base in m), Weather
  local        km/h                         9am  last   hr   10m    
Wed 14:30    S 24/ 35  17.4 -0.3  1019.6    0.0   0.0   0.0   0.0   ----- 
Wed 15:00  SSW 24/ 35  17.5 -0.2  1019.4    0.0   0.0   0.0   0.0   ----- 
Wed 15:30  SSW 24/ 35  17.3 -0.4  1019.4    0.0   0.0   0.0   0.0   ----- 
Wed 16:00  SSW 30/ 37  17.0  0.2  1019.5    0.0   0.0   0.0   0.0   ----- 
Wed 16:30  SSW 17/ 32  17.0 -0.2  1019.6    0.0   0.0   0.0   0.0   ----- 
Wed 17:00  SSW 24/ 35  16.8  0.0  1019.7    0.0   0.0   0.0   0.0   ----- 
Wed 17:30  SSW 20/ 32  16.2 -0.1  1019.9    0.0   0.0   0.0   0.0   ----- 
Wed 18:00  SSW 20/ 32  15.5  0.1  1020.3    0.0   0.0   0.0   0.0   ----- 
Wed 18:30  SSW 13/ 19  14.6 -0.3  1020.7    0.0   0.0   0.0   0.0   ----- 
Wed 19:00  SSW  7/  7  14.0 -0.1  1021.0    0.0   0.0   0.0   0.0   ----- 
Wed 19:30    C  0/  0  13.2 -0.1  1021.3    0.0   0.0   0.0   0.0   ----- 
Wed 20:00    C  0/  0  12.4 -0.5  1021.5    0.0   0.0   0.0   0.0   ----- 

MARREE AERO

Site: 017126
Alt: 50.0m
1km SSE of MARREE


  Time     Wind        Temp  DP   Baro     Rain since   Rain past  Vis(m), Cloud(base in m), Weather
  local        km/h                         9am  last   hr   10m    
Wed 14:30    S 22/ 37  19.9  0.9  1020.1    0.0   0.0   0.0   0.0   ----- 
Wed 15:00  SSW 24/ 39  20.4  1.3  1019.7    0.0   0.0   0.0   0.0   ----- 
Wed 15:30   SW 28/ 41  19.5  1.0  1019.7    0.0   0.0   0.0   0.0   ----- 
Wed 16:00  SSW 30/ 39  20.2  0.6  1019.8    0.0   0.0   0.0   0.0   ----- 
Wed 16:30  SSW 24/ 35  19.6  0.6  1019.9    0.0   0.0   0.0   0.0   ----- 
Wed 17:00   SW 26/ 33  20.1  1.0  1019.8    0.0   0.0   0.0   0.0   ----- 
Wed 17:30   SW 24/ 33  19.6  0.6  1020.2    0.0   0.0   0.0   0.0   ----- 
Wed 18:00   SW 24/ 28  19.1  0.2  1020.5    0.0   0.0   0.0   0.0   ----- 
Wed 18:30  SSW 20/ 28  18.2 -0.1  1020.8    0.0   0.0   0.0   0.0   ----- 
Wed 19:00  SSW 17/ 20  17.3 -0.9  1021.2    0.0   0.0   0.0   0.0   ----- 
Wed 19:30    S 13/ 15  16.3 -0.8  1021.7    0.0   0.0   0.0   0.0   ----- 
Wed 20:00    S 15/ 15  15.3 -0.9  1022.0    0.0   0.0   0.0   0.0   ----- 

MOOMBA AIRPORT

Site: 017123
Alt: 37.8m
66km SW of INNAMINCKA


  Time     Wind        Temp  DP   Baro     Rain since   Rain past  Vis(m), Cloud(base in m), Weather
  local        km/h                         9am  last   hr   10m    
Wed 14:30  SSW 24/ 37  19.9 -4.4  1017.9    0.0   0.0   0.0   0.0   10000 
Wed 15:00    S 19/ 33  20.3 -3.4  1017.9    0.0   0.0   0.0   0.0   10000 
Wed 15:30  SSW 20/ 32  21.0 -2.8  1018.1    0.0   0.0   0.0   0.0   10000 
Wed 16:00  SSW 24/ 37  20.3 -2.7  1018.1    0.0   0.0   0.0   0.0   10000 
Wed 16:30    S 19/ 28  20.1 -2.9  1018.3    0.0   0.0   0.0   0.0   10000 
Wed 17:00  SSW 20/ 28  20.1 -3.5  1018.6    0.0   0.0   0.0   0.0   10000 
Wed 17:30  SSW 17/ 22  19.8 -3.8  1018.8    0.0   0.0   0.0   0.0   10000 
Wed 18:00  SSW 17/ 22  19.1 -3.1  1018.9    0.0   0.0   0.0   0.0   10000 
Wed 18:30  SSW 13/ 17  17.9 -3.5  1019.2    0.0   0.0   0.0   0.0   10000 
Wed 19:00    S  9/ 13  17.3 -2.9  1019.5    0.0   0.0   0.0   0.0   10000 
Wed 19:30    S  7/ 11  16.5 -4.1  1019.9    0.0   0.0   0.0   0.0   10000 
Wed 20:00    S  9/ 11  15.5 -3.9  1020.1    0.0   0.0   0.0   0.0   10000 

OODNADATTA AIRPORT

Site: 017043
Alt: 116.5m
1km S of OODNADATTA


  Time     Wind        Temp  DP   Baro     Rain since   Rain past  Vis(m), Cloud(base in m), Weather
  local        km/h                         9am  last   hr   10m    
Wed 14:30    S 13/ 28  20.9 -1.0  1021.0    0.0   0.0   0.0   0.0   ----- 
Wed 15:00    S 20/ 32  19.8 -1.3  1020.7    0.0   0.0   0.0   0.0   ----- 
Wed 15:30  SSW 22/ 35  20.9 -1.0  1020.3    0.0   0.0   0.0   0.0   ----- 
Wed 16:00  SSE 17/ 20  20.6 -1.2  1020.2    0.0   0.0   0.0   0.0   ----- 
Wed 16:30    S 22/ 33  21.1 -0.8  1020.1    0.0   0.0   0.0   0.0   ----- 
Wed 17:00  SSW 20/ 30  20.9 -1.6  1020.4    0.0   0.0   0.0   0.0   ----- 
Wed 17:30    S 19/ 28  20.7 -0.6  1020.7    0.0   0.0   0.0   0.0   ----- 
Wed 18:00    S 13/ 17  20.6 -0.7  1020.9    0.0   0.0   0.0   0.0   ----- 
Wed 18:30    S 19/ 22  19.8 -0.8  1021.1    0.0   0.0   0.0   0.0   ----- 
Wed 19:00    S 15/ 19  19.0 -0.9  1021.5    0.0   0.0   0.0   0.0   ----- 
Wed 19:30    S 15/ 17  18.3 -0.5  1022.1    0.0   0.0   0.0   0.0   ----- 
Wed 20:00    S 13/ 13  17.2 -1.0  1022.3    0.0   0.0   0.0   0.0   -----